createdAt,value
2019-06-26T00:00:45.744Z,10.93
2019-06-26T00:03:15.991Z,11.40
2019-06-26T00:05:46.088Z,11.30
2019-06-26T00:08:16.355Z,13.45
2019-06-26T00:10:46.377Z,11.57
2019-06-26T00:13:26.078Z,11.47
2019-06-26T00:15:49.722Z,12.82
2019-06-26T00:18:19.929Z,15.00
2019-06-26T00:20:50.099Z,14.60
2019-06-26T00:23:20.382Z,15.10
2019-06-26T00:25:50.540Z,15.08
2019-06-26T00:28:20.847Z,15.20
2019-06-26T00:30:51.000Z,14.85
2019-06-26T00:33:21.140Z,14.93
2019-06-26T00:35:51.351Z,16.80
2019-06-26T00:38:21.732Z,16.65
2019-06-26T00:40:51.964Z,16.02
2019-06-26T00:43:22.029Z,15.88
2019-06-26T00:45:52.144Z,16.67
2019-06-26T00:48:22.177Z,16.35
2019-06-26T00:50:52.400Z,16.15
2019-06-26T00:53:22.560Z,19.80
2019-06-26T00:55:55.190Z,16.40
2019-06-26T00:58:24.889Z,16.48
2019-06-26T01:00:56.103Z,16.32
2019-06-26T01:03:26.078Z,20.08
2019-06-26T01:05:56.305Z,16.82
2019-06-26T01:08:26.331Z,16.52
2019-06-26T01:10:56.565Z,17.10
2019-06-26T01:13:26.806Z,16.77
2019-06-26T01:15:56.946Z,17.40
2019-06-26T01:18:27.093Z,16.52
2019-06-26T01:20:57.225Z,17.27
2019-06-26T01:23:27.471Z,17.35
2019-06-26T01:25:57.551Z,15.10
2019-06-26T01:28:27.732Z,16.95
2019-06-26T01:30:58.007Z,15.65
2019-06-26T01:33:28.107Z,15.15
2019-06-26T01:35:58.152Z,17.50
2019-06-26T01:38:28.328Z,15.78
2019-06-26T01:40:58.362Z,17.77
2019-06-26T01:43:28.421Z,16.12
2019-06-26T01:45:58.580Z,16.62
2019-06-26T01:48:28.794Z,17.45
2019-06-26T01:50:58.899Z,17.05
2019-06-26T01:53:29.108Z,16.37
2019-06-26T01:55:59.231Z,16.57
2019-06-26T01:58:29.371Z,16.97
2019-06-26T02:00:59.747Z,16.25
2019-06-26T02:03:29.942Z,16.90
2019-06-26T02:06:00.223Z,19.27
2019-06-26T02:08:30.455Z,15.98
2019-06-26T02:11:00.644Z,15.68
2019-06-26T02:13:30.829Z,18.17
2019-06-26T02:16:01.038Z,15.90
2019-06-26T02:19:05.464Z,15.45
2019-06-26T02:21:36.250Z,15.58
2019-06-26T02:24:06.439Z,15.20
2019-06-26T02:26:36.716Z,15.25
2019-06-26T02:29:06.819Z,15.98
2019-06-26T02:31:36.976Z,15.18
2019-06-26T02:34:07.073Z,16.55
2019-06-26T02:36:37.234Z,16.17
2019-06-26T02:39:08.318Z,16.80
2019-06-26T02:41:38.561Z,19.82
2019-06-26T02:44:08.805Z,17.17
2019-06-26T02:46:38.830Z,16.10
2019-06-26T02:49:10.127Z,18.48
2019-06-26T02:51:40.337Z,16.00
2019-06-26T02:54:10.536Z,18.27
2019-06-26T02:56:40.721Z,17.60
2019-06-26T02:59:10.921Z,17.25
2019-06-26T03:01:40.995Z,17.67
2019-06-26T03:04:11.038Z,17.37
2019-06-26T03:06:41.277Z,21.07
2019-06-26T03:09:11.426Z,17.27
2019-06-26T03:11:41.696Z,17.82
2019-06-26T03:14:11.924Z,16.90
2019-06-26T03:16:42.088Z,19.63
2019-06-26T03:19:12.279Z,20.05
2019-06-26T03:21:42.486Z,20.00
2019-06-26T03:24:14.620Z,17.70
2019-06-26T03:26:44.869Z,16.83
2019-06-26T03:29:14.942Z,17.90
2019-06-26T03:31:44.968Z,17.87
2019-06-26T03:34:15.045Z,17.85
2019-06-26T03:36:45.131Z,22.10
2019-06-26T03:39:15.315Z,19.00
2019-06-26T03:41:47.494Z,18.52
2019-06-26T03:44:17.711Z,18.98
2019-06-26T03:46:47.912Z,19.70
2019-06-26T03:49:18.036Z,19.40
2019-06-26T03:51:48.222Z,21.15
2019-06-26T03:54:18.280Z,19.55
2019-06-26T03:56:48.446Z,22.57
2019-06-26T03:59:18.747Z,19.92
2019-06-26T04:01:48.716Z,20.17
2019-06-26T04:04:18.765Z,24.18
2019-06-26T04:06:48.978Z,21.40
2019-06-26T04:09:25.198Z,20.80
2019-06-26T04:11:55.935Z,24.75
2019-06-26T04:14:25.954Z,22.87
2019-06-26T04:16:56.148Z,24.23
2019-06-26T04:19:26.264Z,22.70
2019-06-26T04:21:56.351Z,22.67
2019-06-26T04:24:26.382Z,23.95
2019-06-26T04:26:56.465Z,23.52
2019-06-26T04:29:26.527Z,22.93
2019-06-26T04:31:56.565Z,25.57
2019-06-26T04:34:26.618Z,27.37
2019-06-26T04:36:56.639Z,24.23
2019-06-26T04:39:26.832Z,22.50
2019-06-26T04:41:56.929Z,26.15
2019-06-26T04:44:27.021Z,26.05
2019-06-26T04:46:57.139Z,23.73
2019-06-26T04:49:27.229Z,23.60
2019-06-26T04:51:57.566Z,24.77
2019-06-26T04:54:27.613Z,21.45
2019-06-26T04:56:57.784Z,23.92
2019-06-26T04:59:27.994Z,23.40
2019-06-26T05:01:58.228Z,23.22
2019-06-26T05:04:28.330Z,22.10
2019-06-26T05:06:58.364Z,22.95
2019-06-26T05:09:28.528Z,23.80
2019-06-26T05:11:58.662Z,24.82
2019-06-26T05:14:28.828Z,26.00
2019-06-26T05:16:59.001Z,31.30
2019-06-26T05:19:29.036Z,26.20
2019-06-26T05:21:59.185Z,25.88
2019-06-26T05:24:29.135Z,26.42
2019-06-26T05:26:59.245Z,27.82
2019-06-26T05:29:29.416Z,26.33
2019-06-26T05:31:59.627Z,31.12
2019-06-26T05:34:29.740Z,26.20
2019-06-26T05:36:59.886Z,31.60
2019-06-26T05:39:30.075Z,32.05
2019-06-26T05:42:00.267Z,32.50
2019-06-26T05:44:30.258Z,30.50
2019-06-26T05:47:00.314Z,39.55
2019-06-26T05:49:30.484Z,38.65
2019-06-26T05:52:02.172Z,40.43
2019-06-26T05:54:32.390Z,42.53
2019-06-26T05:57:02.481Z,46.48
2019-06-26T05:59:32.562Z,41.13
2019-06-26T06:02:02.699Z,44.63
2019-06-26T06:04:32.725Z,43.13
2019-06-26T06:07:02.834Z,45.78
2019-06-26T06:09:33.012Z,49.93
2019-06-26T06:12:03.148Z,42.38
2019-06-26T06:14:33.254Z,49.08
2019-06-26T06:17:03.311Z,46.73
2019-06-26T06:19:33.326Z,44.03
2019-06-26T06:22:03.543Z,45.17
2019-06-26T06:24:33.567Z,49.67
2019-06-26T06:27:03.702Z,47.10
2019-06-26T06:29:33.813Z,47.65
2019-06-26T06:32:03.992Z,50.25
2019-06-26T06:34:34.045Z,48.25
2019-06-26T06:37:04.103Z,47.10
2019-06-26T06:39:34.148Z,49.58
2019-06-26T06:42:04.363Z,45.12
2019-06-26T06:44:34.502Z,42.53
2019-06-26T06:47:07.998Z,48.52
2019-06-26T06:49:36.614Z,40.85
2019-06-26T06:52:06.814Z,43.95
2019-06-26T06:54:36.910Z,46.58
2019-06-26T06:57:07.087Z,48.28
2019-06-26T06:59:37.268Z,43.60
2019-06-26T07:02:07.498Z,45.43
2019-06-26T07:04:37.592Z,44.45
2019-06-26T07:07:07.756Z,48.25
2019-06-26T07:09:37.865Z,47.23
2019-06-26T07:12:08.077Z,40.67
2019-06-26T07:14:38.043Z,48.33
2019-06-26T07:17:19.934Z,41.98
2019-06-26T07:19:39.953Z,47.05
2019-06-26T07:22:10.131Z,42.17
2019-06-26T07:24:40.250Z,39.63
2019-06-26T07:27:10.412Z,34.53
2019-06-26T07:29:40.591Z,37.30
2019-06-26T07:32:10.553Z,44.70
2019-06-26T07:34:40.791Z,39.42
2019-06-26T07:37:11.003Z,34.33
2019-06-26T07:39:41.099Z,33.23
2019-06-26T07:42:11.256Z,36.53
2019-06-26T07:44:41.197Z,31.93
2019-06-26T07:47:22.512Z,36.38
2019-06-26T07:49:43.298Z,31.87
2019-06-26T07:52:13.435Z,31.02
2019-06-26T07:54:43.584Z,31.70
2019-06-26T07:57:13.796Z,34.10
2019-06-26T07:59:43.905Z,33.48
2019-06-26T08:02:13.976Z,29.42
2019-06-26T08:04:45.306Z,31.97
2019-06-26T08:07:15.417Z,29.67
2019-06-26T08:09:45.650Z,27.98
2019-06-26T08:12:15.788Z,23.93
2019-06-26T08:14:45.905Z,24.87
2019-06-26T08:17:16.066Z,26.00
2019-06-26T08:19:46.160Z,27.25
2019-06-26T08:22:16.353Z,28.73
2019-06-26T08:24:46.471Z,26.87
2019-06-26T08:27:16.712Z,25.70
2019-06-26T08:29:46.803Z,26.50
2019-06-26T08:32:16.842Z,32.75
2019-06-26T08:34:46.928Z,27.75
2019-06-26T08:37:16.959Z,25.83
2019-06-26T08:39:47.067Z,27.67
2019-06-26T08:42:17.256Z,27.93
2019-06-26T08:44:47.458Z,33.18
2019-06-26T08:47:17.673Z,36.68
2019-06-26T08:49:47.736Z,35.15
2019-06-26T08:52:18.261Z,31.42
2019-06-26T08:54:48.371Z,32.05
2019-06-26T08:57:18.788Z,31.60
2019-06-26T08:59:49.105Z,30.08
2019-06-26T09:02:19.275Z,35.98
2019-06-26T09:04:49.360Z,34.58
2019-06-26T09:07:19.512Z,43.08
2019-06-26T09:09:49.609Z,36.38
2019-06-26T09:12:19.664Z,39.42
2019-06-26T09:14:49.883Z,36.58
2019-06-26T09:17:19.931Z,35.20
2019-06-26T09:19:50.042Z,37.13
2019-06-26T09:22:20.115Z,41.10
2019-06-26T09:24:50.155Z,37.33
2019-06-26T09:27:20.367Z,41.92
2019-06-26T09:29:50.583Z,46.08
2019-06-26T09:32:20.668Z,42.93
2019-06-26T09:34:50.793Z,32.75
2019-06-26T09:37:20.867Z,29.02
2019-06-26T09:39:51.036Z,48.00
2019-06-26T09:42:21.167Z,43.55
2019-06-26T09:44:51.198Z,40.55
2019-06-26T09:47:21.298Z,43.78
2019-06-26T09:49:51.446Z,46.40
2019-06-26T09:52:21.646Z,60.15
2019-06-26T09:54:51.761Z,51.77
2019-06-26T09:57:21.980Z,48.35
2019-06-26T09:59:51.966Z,44.03
2019-06-26T10:02:22.105Z,54.93
2019-06-26T10:04:52.212Z,53.87
2019-06-26T10:07:22.348Z,45.63
2019-06-26T10:09:52.461Z,47.03
2019-06-26T10:12:22.692Z,43.30
2019-06-26T10:14:52.920Z,41.70
2019-06-26T10:17:23.797Z,44.42
2019-06-26T10:19:54.343Z,41.70
2019-06-26T10:22:24.686Z,44.05
2019-06-26T10:24:54.955Z,34.73
2019-06-26T10:27:32.793Z,35.13
2019-06-26T10:30:03.132Z,50.15
2019-06-26T10:32:33.354Z,48.03
2019-06-26T10:35:03.678Z,77.25
2019-06-26T10:37:33.911Z,42.23
2019-06-26T10:40:04.579Z,43.23
2019-06-26T10:42:34.846Z,49.05
2019-06-26T10:45:06.046Z,39.27
2019-06-26T10:47:39.677Z,53.25
2019-06-26T10:50:08.562Z,49.73
2019-06-26T10:52:38.817Z,51.77
2019-06-26T10:55:10.737Z,48.38
2019-06-26T10:57:41.102Z,43.48
2019-06-26T11:00:12.033Z,47.73
2019-06-26T11:02:42.720Z,44.83
2019-06-26T11:05:13.515Z,37.30
2019-06-26T11:07:43.745Z,37.88
2019-06-26T11:10:14.763Z,36.95
2019-06-26T11:12:48.833Z,38.42
2019-06-26T11:15:17.186Z,43.50
2019-06-26T11:17:47.271Z,37.93
2019-06-26T11:20:19.201Z,34.70
2019-06-26T11:22:49.491Z,23.70
2019-06-26T11:25:21.501Z,30.05
2019-06-26T11:27:51.771Z,31.42
2019-06-26T11:30:23.013Z,42.33
2019-06-26T11:32:53.213Z,35.25
2019-06-26T11:35:23.389Z,40.25
2019-06-26T11:37:53.764Z,36.65
2019-06-26T11:40:23.977Z,44.75
2019-06-26T11:42:54.165Z,41.50
2019-06-26T11:45:24.398Z,39.83
2019-06-26T11:47:54.995Z,38.40
2019-06-26T11:50:26.218Z,33.38
2019-06-26T11:52:56.641Z,43.28
2019-06-26T11:55:26.835Z,37.83
2019-06-26T11:57:57.066Z,35.75
2019-06-26T12:00:28.301Z,30.52
2019-06-26T12:02:58.537Z,27.65
2019-06-26T12:05:28.680Z,31.62
2019-06-26T12:08:08.080Z,28.87
2019-06-26T12:10:38.196Z,25.70
2019-06-26T12:13:17.639Z,29.32
2019-06-26T12:15:47.792Z,26.42
2019-06-26T12:18:18.087Z,31.73
2019-06-26T12:20:48.161Z,27.25
2019-06-26T12:23:18.267Z,25.60
2019-06-26T12:25:48.484Z,24.35
2019-06-26T12:28:18.660Z,32.55
2019-06-26T12:30:48.830Z,27.95
2019-06-26T12:33:18.896Z,26.90
2019-06-26T12:35:48.936Z,22.70
2019-06-26T12:38:19.041Z,21.07
2019-06-26T12:40:49.300Z,21.57
2019-06-26T12:43:19.426Z,26.77
2019-06-26T12:45:49.643Z,22.75
2019-06-26T12:48:19.935Z,28.20
2019-06-26T12:50:50.120Z,22.22
2019-06-26T12:53:20.382Z,16.50
2019-06-26T12:55:50.488Z,15.98
2019-06-26T12:58:20.584Z,24.77
2019-06-26T13:00:50.724Z,21.73
2019-06-26T13:03:20.914Z,25.15
2019-06-26T13:05:53.251Z,18.42
2019-06-26T13:08:23.456Z,18.40
2019-06-26T13:10:53.875Z,20.95
2019-06-26T13:13:24.091Z,22.17
2019-06-26T13:15:54.180Z,16.95
2019-06-26T13:18:24.311Z,17.87
2019-06-26T13:20:54.712Z,15.63
2019-06-26T13:23:25.018Z,18.37
2019-06-26T13:25:55.209Z,15.70
2019-06-26T13:28:25.360Z,18.87
2019-06-26T13:30:55.903Z,19.57
2019-06-26T13:33:26.001Z,21.02
2019-06-26T13:35:56.339Z,14.23
2019-06-26T13:38:27.298Z,14.83
2019-06-26T13:40:57.695Z,14.85
2019-06-26T13:43:31.568Z,15.93
2019-06-26T13:46:01.791Z,15.60
2019-06-26T13:48:33.051Z,14.07
2019-06-26T13:51:09.441Z,11.57
2019-06-26T13:53:35.112Z,12.33
2019-06-26T13:56:05.535Z,12.30
2019-06-26T13:58:35.632Z,13.67
2019-06-26T14:01:05.859Z,10.88
2019-06-26T14:03:36.023Z,9.25
2019-06-26T14:06:06.191Z,10.93
2019-06-26T14:08:36.386Z,10.53
2019-06-26T14:11:07.667Z,9.43
2019-06-26T14:13:41.536Z,10.60
2019-06-26T14:16:09.721Z,9.53
2019-06-26T14:18:39.822Z,8.33
2019-06-26T14:21:24.506Z,7.85
2019-06-26T14:23:42.069Z,8.53
2019-06-26T14:26:12.650Z,9.38
2019-06-26T14:28:42.965Z,8.18
2019-06-26T14:31:13.106Z,8.38
2019-06-26T14:33:43.269Z,7.75
2019-06-26T14:36:13.636Z,9.10
2019-06-26T14:38:43.918Z,7.42
2019-06-26T14:41:14.258Z,8.95
2019-06-26T14:43:44.537Z,11.60
2019-06-26T14:46:17.225Z,8.30
2019-06-26T14:48:47.506Z,7.65
2019-06-26T14:51:17.847Z,6.35
2019-06-26T14:53:48.264Z,10.32
2019-06-26T14:56:18.491Z,8.60
2019-06-26T14:58:48.724Z,9.68
2019-06-26T15:01:18.953Z,6.60
2019-06-26T15:03:49.235Z,7.33
2019-06-26T15:06:19.755Z,8.23
2019-06-26T15:08:50.064Z,8.88
2019-06-26T15:11:20.186Z,10.43
2019-06-26T15:13:50.532Z,7.80
2019-06-26T15:16:20.788Z,11.70
2019-06-26T15:18:51.121Z,11.57
2019-06-26T15:21:21.363Z,9.43
2019-06-26T15:23:53.742Z,8.13
2019-06-26T15:26:24.423Z,8.00
2019-06-26T15:28:54.572Z,40.85
2019-06-26T15:31:24.866Z,13.37
2019-06-26T15:33:55.001Z,9.38
2019-06-26T15:36:25.028Z,24.40
2019-06-26T15:38:58.919Z,9.20
2019-06-26T15:41:27.063Z,10.70
2019-06-26T15:43:57.436Z,12.93
2019-06-26T15:46:28.291Z,9.73
2019-06-26T15:48:58.974Z,12.73
2019-06-26T15:51:29.162Z,8.35
2019-06-26T15:54:00.129Z,10.75
2019-06-26T15:56:30.161Z,9.40
2019-06-26T15:59:00.289Z,10.78
2019-06-26T16:01:30.476Z,7.97
2019-06-26T16:04:00.670Z,8.30
2019-06-26T16:06:30.714Z,9.33
2019-06-26T16:09:01.087Z,8.88
2019-06-26T16:11:31.119Z,8.05
2019-06-26T16:14:01.362Z,8.25
2019-06-26T16:16:32.548Z,9.18
2019-06-26T16:19:07.802Z,7.25
2019-06-26T16:21:38.094Z,10.32
2019-06-26T16:24:08.384Z,7.67
2019-06-26T16:26:38.631Z,9.98
2019-06-26T16:29:08.892Z,6.95
2019-06-26T16:31:39.238Z,9.40
2019-06-26T16:34:13.119Z,6.58
2019-06-26T16:36:41.700Z,8.55
2019-06-26T16:39:13.931Z,10.48
2019-06-26T16:41:44.355Z,6.42
2019-06-26T16:44:14.760Z,8.58
2019-06-26T16:46:45.038Z,7.62
2019-06-26T16:49:15.076Z,11.05
2019-06-26T16:51:45.296Z,7.60
2019-06-26T16:54:15.582Z,8.18
2019-06-26T16:56:45.838Z,6.20
2019-06-26T16:59:16.016Z,7.40
2019-06-26T17:01:46.528Z,6.35
2019-06-26T17:04:16.820Z,5.83
2019-06-26T17:06:47.114Z,8.35
2019-06-26T17:09:17.364Z,7.60
2019-06-26T17:11:47.704Z,8.43
2019-06-26T17:14:17.834Z,12.63
2019-06-26T17:16:48.063Z,5.53
2019-06-26T17:19:18.659Z,6.15
2019-06-26T17:21:49.124Z,7.03
2019-06-26T17:24:19.336Z,9.78
2019-06-26T17:26:49.660Z,5.12
2019-06-26T17:29:19.936Z,5.25
2019-06-26T17:31:50.153Z,6.78
2019-06-26T17:34:20.329Z,4.97
2019-06-26T17:36:51.739Z,5.95
2019-06-26T17:39:22.039Z,7.15
2019-06-26T17:41:52.210Z,7.03
2019-06-26T17:44:22.418Z,6.28
2019-06-26T17:46:52.605Z,6.67
2019-06-26T17:49:22.854Z,6.10
2019-06-26T17:51:53.203Z,4.70
2019-06-26T17:54:23.521Z,7.67
2019-06-26T17:56:54.877Z,7.67
2019-06-26T17:59:25.065Z,5.45
2019-06-26T18:01:55.325Z,6.10
2019-06-26T18:04:25.483Z,5.33
2019-06-26T18:06:55.701Z,4.50
2019-06-26T18:09:25.750Z,8.78
2019-06-26T18:11:57.025Z,6.53
2019-06-26T18:14:29.017Z,6.55
2019-06-26T18:16:59.213Z,4.47
2019-06-26T18:19:29.473Z,7.55
2019-06-26T18:21:59.589Z,5.05
2019-06-26T18:24:29.688Z,5.67
2019-06-26T18:26:59.977Z,3.52
2019-06-26T18:29:30.194Z,4.22
2019-06-26T18:32:00.746Z,5.55
2019-06-26T18:34:31.210Z,5.42
2019-06-26T18:37:01.834Z,3.58
2019-06-26T18:39:32.174Z,4.22
2019-06-26T18:42:02.655Z,6.37
2019-06-26T18:44:33.102Z,3.33
2019-06-26T18:47:03.427Z,4.92
2019-06-26T18:49:33.543Z,2.70
2019-06-26T18:52:03.838Z,3.90
2019-06-26T18:54:34.155Z,3.98
2019-06-26T18:57:04.697Z,3.90
2019-06-26T18:59:35.082Z,5.90
2019-06-26T19:02:05.393Z,2.23
2019-06-26T19:04:35.474Z,3.50
2019-06-26T19:07:05.613Z,4.28
2019-06-26T19:09:35.756Z,3.85
2019-06-26T19:12:05.971Z,3.45
2019-06-26T19:14:36.160Z,2.62
2019-06-26T19:17:06.391Z,2.92
2019-06-26T19:19:36.450Z,2.52
2019-06-26T19:22:07.382Z,3.40
2019-06-26T19:24:38.050Z,4.70
2019-06-26T19:27:08.271Z,3.58
2019-06-26T19:29:38.288Z,3.40
2019-06-26T19:32:08.403Z,3.55
2019-06-26T19:34:38.618Z,3.45
2019-06-26T19:37:08.713Z,3.12
2019-06-26T19:39:39.089Z,4.67
2019-06-26T19:42:10.991Z,6.12
2019-06-26T19:44:41.403Z,3.80
2019-06-26T19:47:11.576Z,8.48
2019-06-26T19:49:42.087Z,5.03
2019-06-26T19:52:12.290Z,3.42
2019-06-26T19:54:42.419Z,4.83
2019-06-26T19:57:12.612Z,3.52
2019-06-26T19:59:42.816Z,5.50
2019-06-26T20:02:12.953Z,9.20
2019-06-26T20:04:43.623Z,3.25
2019-06-26T20:07:14.100Z,4.53
2019-06-26T20:09:44.411Z,5.67
2019-06-26T20:12:14.734Z,5.90
2019-06-26T20:14:45.032Z,9.25
2019-06-26T20:17:15.494Z,4.78
2019-06-26T20:19:45.878Z,2.85
2019-06-26T20:22:16.267Z,5.85
2019-06-26T20:24:46.619Z,4.47
2019-06-26T20:27:16.903Z,4.70
2019-06-26T20:29:47.229Z,6.85
2019-06-26T20:32:17.555Z,7.28
2019-06-26T20:34:47.846Z,7.83
2019-06-26T20:37:18.116Z,5.10
2019-06-26T20:39:48.447Z,10.30
2019-06-26T20:42:18.737Z,5.05
2019-06-26T20:44:49.080Z,8.05
2019-06-26T20:47:19.386Z,5.40
2019-06-26T20:49:53.489Z,8.58
2019-06-26T20:52:21.848Z,8.93
2019-06-26T20:55:01.061Z,7.22
2019-06-26T20:57:24.313Z,6.22
2019-06-26T20:59:54.538Z,8.53
2019-06-26T21:02:25.170Z,8.35
2019-06-26T21:04:55.436Z,6.65
2019-06-26T21:07:25.812Z,6.08
2019-06-26T21:09:56.160Z,7.47
2019-06-26T21:12:26.747Z,5.53
2019-06-26T21:14:57.077Z,4.22
2019-06-26T21:17:27.641Z,5.92
2019-06-26T21:19:58.236Z,3.65
2019-06-26T21:22:28.588Z,6.12
2019-06-26T21:24:59.081Z,6.87
2019-06-26T21:27:32.232Z,4.90
2019-06-26T21:30:01.381Z,5.30
2019-06-26T21:32:31.711Z,7.37
2019-06-26T21:35:02.079Z,7.65
2019-06-26T21:37:32.409Z,3.95
2019-06-26T21:40:02.789Z,8.13
2019-06-26T21:42:33.121Z,3.60
2019-06-26T21:45:03.846Z,5.60
2019-06-26T21:47:34.144Z,5.25
2019-06-26T21:50:04.709Z,6.58
2019-06-26T21:52:35.022Z,9.08
2019-06-26T21:55:05.468Z,4.37
2019-06-26T21:57:35.795Z,6.40
2019-06-26T22:00:08.555Z,5.33
2019-06-26T22:02:38.996Z,4.87
2019-06-26T22:05:11.257Z,6.05
2019-06-26T22:07:41.594Z,6.75
2019-06-26T22:10:11.988Z,5.53
2019-06-26T22:12:42.309Z,7.33
2019-06-26T22:15:12.942Z,4.53
2019-06-26T22:17:43.274Z,2.85
2019-06-26T22:20:15.173Z,6.47
2019-06-26T22:22:45.488Z,4.87
2019-06-26T22:25:16.107Z,3.60
2019-06-26T22:27:46.444Z,4.97
2019-06-26T22:30:18.491Z,5.70
2019-06-26T22:32:49.095Z,3.80
2019-06-26T22:35:19.761Z,7.90
2019-06-26T22:37:50.106Z,5.40
2019-06-26T22:40:21.067Z,6.50
2019-06-26T22:42:51.423Z,6.43
2019-06-26T22:45:21.766Z,2.87
2019-06-26T22:47:52.047Z,4.23
2019-06-26T22:50:22.354Z,4.93
2019-06-26T22:52:52.637Z,3.80
2019-06-26T22:55:23.219Z,6.97
2019-06-26T22:57:53.587Z,7.87
2019-06-26T23:00:24.316Z,6.50
2019-06-26T23:02:54.657Z,5.13
2019-06-26T23:05:24.957Z,5.30
2019-06-26T23:07:55.322Z,5.93
2019-06-26T23:10:25.885Z,7.73
2019-06-26T23:12:56.178Z,7.23
2019-06-26T23:15:26.437Z,3.93
2019-06-26T23:17:57.095Z,6.27
2019-06-26T23:20:27.433Z,5.27
2019-06-26T23:22:57.852Z,4.53
2019-06-26T23:25:28.523Z,7.00
2019-06-26T23:27:58.926Z,4.87
2019-06-26T23:30:29.227Z,7.37
2019-06-26T23:32:59.946Z,6.33
2019-06-26T23:35:30.415Z,6.60
2019-06-26T23:38:00.663Z,5.77
2019-06-26T23:40:30.984Z,5.23
2019-06-26T23:43:01.293Z,4.87
2019-06-26T23:45:31.612Z,4.90
2019-06-26T23:48:02.281Z,9.23
2019-06-26T23:50:32.579Z,6.73
2019-06-26T23:53:03.099Z,5.47
2019-06-26T23:55:33.432Z,10.63
2019-06-26T23:58:03.751Z,5.73
